Latest Weather Observations for Hogan Island

IDT60801

Issued at 6:31 pm EDT Friday 27 February 2015 (issued every 30 minutes, with the page automatically refreshed every 10 minutes)

About weather observations | Map of weather stations | Latest weather observations for TAS | Other Formats
Station Details ID: 200838 Name: HOGAN ISLAND Lat: -39.22 Lon: 146.98 Height: 116.0 m
Data from the previous 72 hours. | See also: Recent months at Hogan Island
Date/Time
EDT
Temp
°C
App
Temp
°C
Dew
Point
Rel
Hum
%
Delta-T
°C
Wind Press
QNH
hPa
Press
MSL
hPa
Rain
since 9 am
mm
Dir
 
Spd
km/h
Gust
km/h
Spd
kts
Gust
kts
27/06:30pm 16.1 13.3 11.3 73 2.6 SW 17 24 9 13 1009.6 - 0.0
27/06:00pm 16.3 12.1 11.2 72 2.8 WSW 24 30 13 16 1010.2 1009.9 0.0
27/05:30pm 16.8 12.8 11.7 72 2.8 WSW 24 30 13 16 1010.4 - 0.0
27/05:00pm 17.1 13.9 12.0 72 2.8 SW 20 26 11 14 1009.9 - 0.0
27/04:30pm 17.7 14.1 11.7 68 3.3 SW 22 28 12 15 1010.3 - 0.0
27/04:00pm 18.0 14.3 12.7 71 3.0 SW 24 28 13 15 1010.1 - 0.0
27/03:30pm 17.4 13.1 12.1 71 2.9 SW 26 32 14 17 1010.3 - 0.0
27/03:00pm 19.4 16.2 13.1 67 3.6 SW 22 26 12 14 1010.6 1010.4 0.0
27/02:30pm 19.5 16.7 13.2 67 3.6 SW 20 26 11 14 1010.7 - 0.0
27/02:00pm 20.1 17.1 13.8 67 3.6 SW 22 26 12 14 1011.1 - 0.0
27/01:30pm 19.0 17.1 14.1 73 2.8 SW 17 22 9 12 1010.7 - 0.0
27/01:00pm 19.7 17.6 15.1 75 2.7 SW 20 24 11 13 1011.0 - 0.0
27/12:30pm 20.2 16.9 14.1 68 3.5 SW 24 30 13 16 1011.1 - 0.0
27/12:00pm 19.4 17.1 14.2 72 3.0 SW 19 20 10 11 1011.2 1010.9 0.0
27/11:30am 19.7 17.3 14.5 72 3.0 SW 20 24 11 13 1011.5 - 0.0
27/11:00am 19.8 19.0 16.1 79 2.2 SW 15 20 8 11 1011.3 - 0.0
27/10:30am 18.6 16.8 15.5 82 1.8 SW 19 24 10 13 1011.2 - 0.0
27/10:00am 18.3 17.5 16.1 87 1.3 SW 15 17 8 9 1011.0 - 0.0
27/09:30am 17.0 16.3 15.3 90 1.0 S 13 15 7 8 1010.6 - 0.0
27/09:00am 17.2 16.7 15.9 92 0.8 S 13 17 7 9 1010.6 1010.4 0.2
27/08:30am 16.7 15.6 15.4 92 0.8 S 15 17 8 9 1010.6 - 0.0
27/08:00am 16.0 13.9 14.7 92 0.7 S 19 22 10 12 1010.3 - 0.0
27/07:30am 16.1 14.0 14.6 91 0.9 SW 19 22 10 12 1010.4 - 0.0
27/07:00am 16.4 14.2 14.8 90 0.9 SW 20 26 11 14 1010.1 - 0.0
27/06:30am 16.4 14.7 14.8 90 0.9 SW 17 22 9 12 1009.8 - 0.0
27/06:00am 16.5 14.5 14.9 90 0.9 SW 19 24 10 13 1009.7 1009.4 0.0
27/05:30am 16.7 15.1 15.1 90 0.9 WSW 17 20 9 11 1009.8 - 0.0
27/05:00am 16.6 15.0 15.0 90 0.9 WSW 17 20 9 11 1009.6 - 0.0
27/04:30am 16.3 14.6 14.7 90 0.9 WSW 17 20 9 11 1009.8 - 0.0
27/04:00am 16.4 14.7 14.6 89 1.0 WSW 17 20 9 11 1009.9 - 0.0
27/03:30am 16.4 14.3 14.6 89 1.0 WSW 19 22 10 12 1010.1 - 0.0
27/03:00am 16.6 14.4 15.0 90 0.9 W 20 26 11 14 1010.1 1009.8 0.0
27/02:30am 16.7 13.4 14.9 89 1.0 W 26 30 14 16 1010.0 - 0.0
27/02:00am 16.7 13.7 14.9 89 1.0 WSW 24 28 13 15 1010.3 - 0.0
27/01:30am 16.7 14.0 14.7 88 1.2 WSW 22 24 12 13 1010.7 - 0.0
27/01:00am 16.6 13.9 14.6 88 1.2 WSW 22 26 12 14 1010.9 - 0.0
27/12:30am 16.8 13.9 15.0 89 1.0 W 24 28 13 15 1010.9 - 0.0
27/12:00am 16.5 13.2 14.9 90 0.9 W 26 30 14 16 1010.6 1010.4 0.0
 
Date/Time
EDT
Temp
°C
App
Temp
°C
Dew
Point
Rel
Hum
%
Delta-T
°C
Wind Press
QNH
hPa
Press
MSL
hPa
Rain
since 9 am
mm
Dir
 
Spd
km/h
Gust
km/h
Spd
kts
Gust
kts
26/11:30pm 16.5 13.2 14.9 90 0.9 W 26 30 14 16 1010.7 - 0.0
26/11:00pm 16.5 12.7 14.7 89 1.0 WSW 28 32 15 17 1010.9 - 0.0
26/10:30pm 16.5 12.3 14.7 89 1.0 W 30 33 16 18 1011.0 - 0.0
26/10:00pm 16.6 11.9 14.8 89 1.0 WSW 33 39 18 21 1010.9 - 0.0
26/09:30pm 16.5 11.9 14.7 89 1.0 WSW 32 35 17 19 1010.7 - 0.0
26/09:00pm 16.7 12.1 14.7 88 1.2 W 32 37 17 20 1010.4 1010.2 0.0
26/08:30pm 16.8 12.0 14.6 87 1.3 W 33 39 18 21 1010.1 - 0.0
26/08:00pm 16.9 12.2 14.2 84 1.5 W 32 35 17 19 1009.8 - 0.0
26/07:30pm 17.7 12.8 13.8 78 2.2 W 32 37 17 20 1009.3 - 0.0
26/07:00pm 18.6 14.2 14.1 75 2.6 WSW 30 35 16 19 1009.1 - 0.0
26/06:30pm 19.0 14.1 14.3 74 2.7 W 33 39 18 21 1009.0 - 0.0
26/06:00pm 19.4 14.5 14.2 72 3.0 WSW 33 39 18 21 1008.8 1008.5 0.0
26/05:30pm 20.0 15.4 15.2 74 2.8 WSW 33 41 18 22 1008.6 - 0.0
26/05:00pm 20.1 15.3 15.5 75 2.7 WSW 35 39 19 21 1008.5 - 0.0
26/04:30pm 20.8 16.6 15.8 73 3.0 WSW 32 35 17 19 1008.8 - 0.0
26/04:00pm 20.8 15.8 16.0 74 2.9 WSW 37 43 20 23 1008.8 - 0.0
26/03:30pm 21.3 17.1 16.3 73 3.0 WSW 33 39 18 21 1008.9 - 0.0
26/03:00pm 19.7 14.3 15.1 75 2.7 WSW 37 43 20 23 1009.1 1008.8 0.0
26/02:30pm 20.7 16.7 16.1 75 2.8 WSW 32 35 17 19 1009.0 - 0.0
26/02:00pm 21.3 17.2 16.5 74 2.9 W 33 39 18 21 1008.9 - 0.0
26/01:30pm 21.6 18.0 16.3 72 3.2 WSW 30 33 16 18 1008.9 - 0.0
26/01:00pm 22.3 19.4 17.0 72 3.3 W 28 33 15 18 1009.0 - 0.0
26/12:30pm 21.4 17.9 16.6 74 2.9 WSW 30 33 16 18 1009.1 - 0.0
26/12:00pm 21.0 17.2 16.6 76 2.7 WSW 32 37 17 20 1009.1 1008.8 0.0
26/11:30am 20.7 16.8 16.5 77 2.5 WSW 32 37 17 20 1009.1 - 0.0
26/11:00am 20.3 16.2 16.5 79 2.3 W 33 39 18 21 1009.2 - 0.0
26/10:30am 20.2 18.0 17.0 82 2.0 W 24 30 13 16 1009.0 - 0.0
26/10:00am 19.0 16.5 17.0 88 1.2 W 26 30 14 16 1008.9 - 0.0
26/09:30am 17.6 14.6 15.9 90 1.0 W 26 30 14 16 1008.7 - 0.0
26/09:00am 17.2 14.9 15.7 91 0.9 W 22 26 12 14 1008.4 1008.1 0.0
26/08:30am 17.0 15.6 15.5 91 0.9 W 17 20 9 11 1008.3 - 0.0
26/08:00am 16.7 16.3 15.2 91 0.9 WNW 11 15 6 8 1008.2 - 0.0
26/07:30am 16.5 16.4 15.0 91 0.9 WNW 9 13 5 7 1008.0 - 0.0
26/07:00am 16.3 16.1 14.8 91 0.9 NNW 9 11 5 6 1008.0 - 0.0
26/06:30am 16.2 15.6 14.6 90 0.9 N 11 13 6 7 1007.8 - 0.0
26/06:00am 16.4 15.1 14.8 90 0.9 N 15 17 8 9 1008.0 1007.7 0.0
26/05:30am 16.4 14.7 14.6 89 1.0 NNE 17 20 9 11 1008.0 - 0.0
26/05:00am 16.6 13.9 14.6 88 1.2 NE 22 26 12 14 1007.9 - 0.0
26/04:30am 16.7 12.8 14.5 87 1.3 NE 28 33 15 18 1008.3 - 0.0
26/04:00am 16.6 12.7 14.4 87 1.3 NE 28 35 15 19 1008.3 - 0.0
26/03:30am 16.9 12.1 14.5 86 1.4 NE 33 39 18 21 1008.4 - 0.0
26/03:00am 16.8 12.1 14.3 85 1.4 NE 32 39 17 21 1008.7 1008.4 0.0
26/02:30am 16.9 12.0 14.2 84 1.5 NE 33 41 18 22 1009.1 - 0.0
26/02:00am 16.7 11.7 14.0 84 1.5 NE 33 41 18 22 1009.7 - 0.0
26/01:30am 16.8 11.1 14.3 85 1.4 NE 37 44 20 24 1010.0 - 0.0
26/01:00am 16.9 10.5 14.4 85 1.4 NE 41 48 22 26 1010.2 - 0.0
26/12:30am 16.9 10.1 14.2 84 1.5 ENE 43 48 23 26 1010.4 - 0.0
26/12:00am 16.9 10.8 14.0 83 1.7 ENE 39 44 21 24 1011.3 1011.0 0.0
 
Date/Time
EDT
Temp
°C
App
Temp
°C
Dew
Point
Rel
Hum
%
Delta-T
°C
Wind Press
QNH
hPa
Press
MSL
hPa
Rain
since 9 am
mm
Dir
 
Spd
km/h
Gust
km/h
Spd
kts
Gust
kts
25/11:30pm 16.8 10.6 13.9 83 1.7 ENE 39 46 21 25 1011.8 - 0.0
25/11:00pm 16.9 10.3 13.8 82 1.8 ENE 41 46 22 25 1012.3 - 0.0
25/10:30pm 17.0 10.4 13.7 81 1.9 ENE 41 48 22 26 1012.5 - 0.0
25/10:00pm 17.0 10.1 14.1 83 1.7 ENE 43 50 23 27 1012.4 - 0.0
25/09:30pm 17.0 10.2 14.3 84 1.6 ENE 43 50 23 27 1012.5 - 0.0
25/09:00pm 17.0 11.6 13.9 82 1.8 ENE 35 41 19 22 1013.2 1012.9 0.0
25/08:30pm 17.0 10.4 13.7 81 1.9 ENE 41 48 22 26 1013.1 - 0.0
25/08:00pm 17.0 11.1 13.7 81 1.9 ENE 37 41 20 22 1013.3 - 0.0
25/07:30pm 17.3 11.9 13.8 80 2.0 ENE 35 41 19 22 1013.6 - 0.0
25/07:00pm 17.6 12.6 14.1 80 2.0 ENE 33 39 18 21 1013.8 - 0.0
25/06:30pm 18.3 12.5 13.8 75 2.6 ENE 37 43 20 23 1013.8 - 0.0
25/06:00pm 18.7 13.5 14.6 77 2.4 E 35 41 19 22 1014.3 1014.0 0.0
25/05:30pm 19.3 12.6 14.6 74 2.7 E 43 50 23 27 1014.6 - 0.0
25/05:00pm 19.0 12.0 14.3 74 2.7 E 44 52 24 28 1014.6 - 0.0
25/04:30pm 19.1 11.7 14.1 73 2.9 E 46 56 25 30 1014.9 - 0.0
25/04:00pm 19.6 12.8 14.2 71 3.1 E 43 50 23 27 1015.6 - 0.0
25/03:30pm 19.8 12.7 13.5 67 3.6 E 43 52 23 28 1016.1 - 0.0
25/03:00pm 19.8 12.4 13.0 65 3.9 E 44 50 24 27 1016.7 1016.4 0.0
25/02:30pm 20.2 13.1 13.4 65 3.9 E 43 48 23 26 1017.3 - 0.0
25/02:00pm 20.2 11.8 13.4 65 3.9 E 50 57 27 31 1017.1 - 0.0
25/01:30pm 20.4 12.3 13.1 63 4.2 E 48 57 26 31 1017.4 - 0.0
25/01:00pm 19.8 11.9 12.8 64 4.0 E 46 56 25 30 1017.8 - 0.0
25/12:30pm 19.4 11.9 12.7 65 3.8 E 44 52 24 28 1018.3 - 0.0
25/12:00pm 18.4 10.6 11.9 66 3.6 E 44 52 24 28 1018.7 1018.5 0.0
25/11:30am 18.3 10.1 11.6 65 3.7 E 46 54 25 29 1018.9 - 0.0
25/11:00am 18.0 9.3 11.3 65 3.7 E 48 57 26 31 1018.9 - 0.0
25/10:30am 17.8 9.5 11.4 66 3.5 E 46 52 25 28 1019.0 - 0.0
25/10:00am 17.7 9.2 10.8 64 3.7 E 46 54 25 29 1019.2 - 0.0
25/09:30am 17.6 9.5 10.7 64 3.7 E 44 52 24 28 1019.4 - 0.0
25/09:00am 17.4 8.9 10.8 65 3.6 E 46 54 25 29 1019.2 1019.0 0.0
25/08:30am 17.1 8.1 10.2 64 3.7 E 48 54 26 29 1019.1 - 0.0
25/08:00am 16.9 7.5 10.1 64 3.6 E 50 59 27 32 1019.0 - 0.0
25/07:30am 16.8 7.1 10.4 66 3.4 E 52 59 28 32 1018.8 - 0.0
25/07:00am 16.7 7.4 10.5 67 3.3 E 50 59 27 32 1018.6 - 0.0
25/06:30am 16.8 8.5 11.5 71 2.9 E 46 54 25 29 1018.8 - 0.0
25/06:00am 16.6 7.2 10.2 66 3.4 E 50 57 27 31 1018.5 1018.3 0.0
25/05:30am 16.7 7.9 11.0 69 3.1 E 48 57 26 31 1018.4 - 0.0
25/05:00am 16.7 7.9 11.0 69 3.1 E 48 56 26 30 1018.3 - 0.0
25/04:30am 16.7 7.5 11.0 69 3.1 E 50 57 27 31 1018.3 - 0.0
25/04:00am 16.7 7.1 10.8 68 3.2 E 52 61 28 33 1018.4 - 0.0
25/03:30am 16.6 7.0 10.9 69 3.1 E 52 59 28 32 1018.4 - 0.0
25/03:00am 16.8 7.4 11.5 71 2.9 E 52 59 28 32 1018.7 1018.5 0.0
25/02:30am 16.8 7.8 11.7 72 2.8 E 50 56 27 30 1019.0 - 0.0
25/02:00am 16.9 8.3 11.8 72 2.8 E 48 56 26 30 1019.3 - 0.0
25/01:30am 16.8 7.8 11.5 71 2.9 E 50 57 27 31 1019.5 - 0.0
25/01:00am 16.9 8.0 12.0 73 2.7 E 50 57 27 31 1019.7 - 0.0
25/12:30am 16.8 8.1 12.7 77 2.3 E 50 59 27 32 1019.7 - 0.0
25/12:00am 16.8 9.0 12.9 78 2.2 E 46 54 25 29 1020.4 1020.1 0.0
 
Date/Time
EDT
Temp
°C
App
Temp
°C
Dew
Point
Rel
Hum
%
Delta-T
°C
Wind Press
QNH
hPa
Press
MSL
hPa
Rain
since 9 am
mm
Dir
 
Spd
km/h
Gust
km/h
Spd
kts
Gust
kts
24/11:30pm 16.7 8.0 12.5 76 2.3 E 50 57 27 31 1020.8 - 0.0
24/11:00pm 16.7 7.6 12.5 76 2.3 E 52 57 28 31 1021.1 - 0.0
24/10:30pm 16.7 8.8 12.7 77 2.2 E 46 56 25 30 1021.4 - 0.0
24/10:00pm 16.8 8.1 12.5 76 2.4 E 50 59 27 32 1021.1 - 0.0
24/09:30pm 16.7 6.8 12.5 76 2.3 E 56 61 30 33 1020.8 - 0.0
24/09:00pm 16.6 7.0 12.2 75 2.4 E 54 61 29 33 1020.8 1020.5 0.0
24/08:30pm 16.7 6.6 11.8 73 2.7 E 56 65 30 35 1020.4 - 0.0
24/08:00pm 16.5 6.3 12.1 75 2.4 E 57 65 31 35 1020.0 - 0.0
24/07:30pm 16.5 6.9 12.1 75 2.4 E 54 63 29 34 1019.7 - 0.0
24/07:00pm 16.7 7.8 12.0 74 2.6 E 50 59 27 32 1020.0 - 0.0

Other Formats:

Comma delimited format used in spreadsheet applications
http://www.bom.gov.au/fwo/IDT60801/IDT60801.94949.axf

JavaScript Object Notation format (JSON) in row-major order
http://www.bom.gov.au/fwo/IDT60801/IDT60801.94949.json